sensor_id;sensor_type;location;lat;lon;timestamp;temperature;humidity
23827;DHT22;12094;50.822;4.376;2022-08-19T00:02:16;22.00;99.90
23827;DHT22;12094;50.822;4.376;2022-08-19T00:04:43;21.90;99.90
23827;DHT22;12094;50.822;4.376;2022-08-19T00:07:13;21.80;99.90
23827;DHT22;12094;50.822;4.376;2022-08-19T00:09:40;21.80;99.90
23827;DHT22;12094;50.822;4.376;2022-08-19T00:12:07;21.80;99.90
23827;DHT22;12094;50.822;4.376;2022-08-19T00:14:35;21.90;99.90
23827;DHT22;12094;50.822;4.376;2022-08-19T00:17:04;21.80;99.90
23827;DHT22;12094;50.822;4.376;2022-08-19T00:19:31;21.60;99.90
23827;DHT22;12094;50.822;4.376;2022-08-19T00:21:58;21.60;99.90
23827;DHT22;12094;50.822;4.376;2022-08-19T00:24:25;21.70;99.90
23827;DHT22;12094;50.822;4.376;2022-08-19T00:26:53;21.60;99.90
23827;DHT22;12094;50.822;4.376;2022-08-19T00:29:24;21.50;99.90
23827;DHT22;12094;50.822;4.376;2022-08-19T00:31:52;21.50;99.90
23827;DHT22;12094;50.822;4.376;2022-08-19T00:34:27;21.50;99.90
23827;DHT22;12094;50.822;4.376;2022-08-19T00:36:56;21.60;99.90
23827;DHT22;12094;50.822;4.376;2022-08-19T00:39:24;21.60;99.90
23827;DHT22;12094;50.822;4.376;2022-08-19T00:41:52;21.50;99.90
23827;DHT22;12094;50.822;4.376;2022-08-19T00:44:23;21.40;99.90
23827;DHT22;12094;50.822;4.376;2022-08-19T00:46:54;21.40;99.90
23827;DHT22;12094;50.822;4.376;2022-08-19T00:52:46;21.40;99.90
23827;DHT22;12094;50.822;4.376;2022-08-19T00:55:16;21.30;99.90
23827;DHT22;12094;50.822;4.376;2022-08-19T00:57:54;21.10;99.90
23827;DHT22;12094;50.822;4.376;2022-08-19T01:00:23;21.00;99.90
23827;DHT22;12094;50.822;4.376;2022-08-19T01:02:52;21.00;99.90
23827;DHT22;12094;50.822;4.376;2022-08-19T01:05:26;21.00;99.90
23827;DHT22;12094;50.822;4.376;2022-08-19T01:08:09;20.90;99.90
23827;DHT22;12094;50.822;4.376;2022-08-19T01:10:44;20.90;99.90
23827;DHT22;12094;50.822;4.376;2022-08-19T01:13:27;20.80;99.90
23827;DHT22;12094;50.822;4.376;2022-08-19T01:16:20;20.80;99.90
23827;DHT22;12094;50.822;4.376;2022-08-19T01:18:50;20.70;99.90
23827;DHT22;12094;50.822;4.376;2022-08-19T01:21:39;20.60;99.90
23827;DHT22;12094;50.822;4.376;2022-08-19T01:24:07;20.70;99.90
23827;DHT22;12094;50.822;4.376;2022-08-19T01:26:40;20.70;99.90
23827;DHT22;12094;50.822;4.376;2022-08-19T01:29:13;20.70;99.90
23827;DHT22;12094;50.822;4.376;2022-08-19T01:31:41;20.50;99.90
23827;DHT22;12094;50.822;4.376;2022-08-19T01:34:11;20.50;99.90
23827;DHT22;12094;50.822;4.376;2022-08-19T01:36:43;20.60;99.90
23827;DHT22;12094;50.822;4.376;2022-08-19T01:39:20;20.60;99.90
23827;DHT22;12094;50.822;4.376;2022-08-19T01:41:49;20.70;99.90
23827;DHT22;12094;50.822;4.376;2022-08-19T01:44:18;20.60;99.90
23827;DHT22;12094;50.822;4.376;2022-08-19T01:46:48;20.50;99.90
23827;DHT22;12094;50.822;4.376;2022-08-19T01:49:22;20.50;99.90
23827;DHT22;12094;50.822;4.376;2022-08-19T01:51:51;20.40;99.90
23827;DHT22;12094;50.822;4.376;2022-08-19T01:54:22;20.40;99.90
23827;DHT22;12094;50.822;4.376;2022-08-19T01:57:07;20.20;99.90
23827;DHT22;12094;50.822;4.376;2022-08-19T01:59:37;20.30;99.90
23827;DHT22;12094;50.822;4.376;2022-08-19T02:02:07;20.20;99.90
23827;DHT22;12094;50.822;4.376;2022-08-19T02:04:36;20.00;99.90
23827;DHT22;12094;50.822;4.376;2022-08-19T02:07:05;20.10;99.90
23827;DHT22;12094;50.822;4.376;2022-08-19T02:09:32;20.00;99.90
23827;DHT22;12094;50.822;4.376;2022-08-19T02:12:00;20.00;99.90
23827;DHT22;12094;50.822;4.376;2022-08-19T02:14:27;20.00;99.90
23827;DHT22;12094;50.822;4.376;2022-08-19T02:16:54;20.00;99.90
23827;DHT22;12094;50.822;4.376;2022-08-19T02:19:22;20.00;99.90
23827;DHT22;12094;50.822;4.376;2022-08-19T02:21:49;20.00;99.90
23827;DHT22;12094;50.822;4.376;2022-08-19T02:24:18;19.90;99.90
23827;DHT22;12094;50.822;4.376;2022-08-19T02:26:46;19.90;99.90
23827;DHT22;12094;50.822;4.376;2022-08-19T02:29:14;19.90;99.90
23827;DHT22;12094;50.822;4.376;2022-08-19T02:31:42;19.80;99.90
23827;DHT22;12094;50.822;4.376;2022-08-19T02:34:09;19.80;99.90
23827;DHT22;12094;50.822;4.376;2022-08-19T02:36:37;19.80;99.90
23827;DHT22;12094;50.822;4.376;2022-08-19T02:39:09;19.70;99.90
23827;DHT22;12094;50.822;4.376;2022-08-19T02:41:36;19.60;99.90
23827;DHT22;12094;50.822;4.376;2022-08-19T02:44:03;19.70;99.90
23827;DHT22;12094;50.822;4.376;2022-08-19T02:46:51;19.70;99.90
23827;DHT22;12094;50.822;4.376;2022-08-19T02:49:19;19.60;99.90
23827;DHT22;12094;50.822;4.376;2022-08-19T02:51:47;19.60;99.90
23827;DHT22;12094;50.822;4.376;2022-08-19T02:54:15;19.40;99.90
23827;DHT22;12094;50.822;4.376;2022-08-19T02:56:44;19.30;99.90
23827;DHT22;12094;50.822;4.376;2022-08-19T02:59:14;19.40;99.90
23827;DHT22;12094;50.822;4.376;2022-08-19T03:01:42;19.50;99.90
23827;DHT22;12094;50.822;4.376;2022-08-19T03:04:14;19.60;99.90
23827;DHT22;12094;50.822;4.376;2022-08-19T03:06:45;19.50;99.90
23827;DHT22;12094;50.822;4.376;2022-08-19T03:09:13;19.50;99.90
23827;DHT22;12094;50.822;4.376;2022-08-19T03:11:40;19.40;99.90
23827;DHT22;12094;50.822;4.376;2022-08-19T03:14:09;19.40;99.90
23827;DHT22;12094;50.822;4.376;2022-08-19T03:16:51;19.40;99.90
23827;DHT22;12094;50.822;4.376;2022-08-19T03:19:20;19.40;99.90
23827;DHT22;12094;50.822;4.376;2022-08-19T03:21:51;19.30;99.90
23827;DHT22;12094;50.822;4.376;2022-08-19T03:24:19;19.20;99.90
23827;DHT22;12094;50.822;4.376;2022-08-19T03:26:50;19.20;99.90
23827;DHT22;12094;50.822;4.376;2022-08-19T03:29:19;19.20;99.90
23827;DHT22;12094;50.822;4.376;2022-08-19T03:32:04;19.30;99.90
23827;DHT22;12094;50.822;4.376;2022-08-19T03:34:54;19.30;99.90
23827;DHT22;12094;50.822;4.376;2022-08-19T03:37:22;19.10;99.90
23827;DHT22;12094;50.822;4.376;2022-08-19T03:39:50;19.10;99.90
23827;DHT22;12094;50.822;4.376;2022-08-19T03:42:18;19.20;99.90
23827;DHT22;12094;50.822;4.376;2022-08-19T03:45:04;19.20;99.90
23827;DHT22;12094;50.822;4.376;2022-08-19T03:47:32;19.20;99.90
23827;DHT22;12094;50.822;4.376;2022-08-19T03:50:00;19.30;99.90
23827;DHT22;12094;50.822;4.376;2022-08-19T03:52:27;19.10;99.90
23827;DHT22;12094;50.822;4.376;2022-08-19T03:54:53;19.00;99.90
23827;DHT22;12094;50.822;4.376;2022-08-19T03:57:23;18.90;99.90
23827;DHT22;12094;50.822;4.376;2022-08-19T03:59:58;18.90;99.90
23827;DHT22;12094;50.822;4.376;2022-08-19T04:02:38;18.90;99.90
23827;DHT22;12094;50.822;4.376;2022-08-19T04:05:05;18.90;99.90
23827;DHT22;12094;50.822;4.376;2022-08-19T04:07:35;19.00;99.90
23827;DHT22;12094;50.822;4.376;2022-08-19T04:10:03;19.00;99.90
23827;DHT22;12094;50.822;4.376;2022-08-19T04:12:31;18.90;99.90
23827;DHT22;12094;50.822;4.376;2022-08-19T04:15:04;18.60;99.90
23827;DHT22;12094;50.822;4.376;2022-08-19T04:17:33;18.40;99.90
23827;DHT22;12094;50.822;4.376;2022-08-19T04:20:01;18.30;99.90
23827;DHT22;12094;50.822;4.376;2022-08-19T04:22:32;18.20;99.90
23827;DHT22;12094;50.822;4.376;2022-08-19T04:25:00;18.20;99.90
23827;DHT22;12094;50.822;4.376;2022-08-19T04:27:28;18.30;99.90
23827;DHT22;12094;50.822;4.376;2022-08-19T04:29:57;18.20;99.90
23827;DHT22;12094;50.822;4.376;2022-08-19T04:32:25;18.00;99.90
23827;DHT22;12094;50.822;4.376;2022-08-19T04:34:54;18.00;99.90
23827;DHT22;12094;50.822;4.376;2022-08-19T04:37:43;17.90;99.90
23827;DHT22;12094;50.822;4.376;2022-08-19T04:40:11;17.80;99.90
23827;DHT22;12094;50.822;4.376;2022-08-19T04:42:57;17.80;99.90
23827;DHT22;12094;50.822;4.376;2022-08-19T04:45:31;17.70;99.90
23827;DHT22;12094;50.822;4.376;2022-08-19T04:48:09;17.70;99.90
23827;DHT22;12094;50.822;4.376;2022-08-19T04:50:55;17.70;99.90
23827;DHT22;12094;50.822;4.376;2022-08-19T04:53:30;17.70;99.90
23827;DHT22;12094;50.822;4.376;2022-08-19T04:56:10;17.70;99.90
23827;DHT22;12094;50.822;4.376;2022-08-19T04:58:40;17.70;99.90
23827;DHT22;12094;50.822;4.376;2022-08-19T05:01:12;17.70;99.90
23827;DHT22;12094;50.822;4.376;2022-08-19T05:03:39;17.70;99.90
23827;DHT22;12094;50.822;4.376;2022-08-19T05:06:13;17.60;99.90
23827;DHT22;12094;50.822;4.376;2022-08-19T05:08:41;17.50;99.90
23827;DHT22;12094;50.822;4.376;2022-08-19T05:11:21;17.60;99.90
23827;DHT22;12094;50.822;4.376;2022-08-19T05:13:56;17.60;99.90
23827;DHT22;12094;50.822;4.376;2022-08-19T05:16:25;17.50;99.90
23827;DHT22;12094;50.822;4.376;2022-08-19T05:18:54;17.60;99.90
23827;DHT22;12094;50.822;4.376;2022-08-19T05:21:42;17.50;99.90
23827;DHT22;12094;50.822;4.376;2022-08-19T05:24:29;17.50;99.90
23827;DHT22;12094;50.822;4.376;2022-08-19T05:26:57;17.50;99.90
23827;DHT22;12094;50.822;4.376;2022-08-19T05:29:26;17.50;99.90
23827;DHT22;12094;50.822;4.376;2022-08-19T05:32:04;17.50;99.90
23827;DHT22;12094;50.822;4.376;2022-08-19T05:34:32;17.50;99.90
23827;DHT22;12094;50.822;4.376;2022-08-19T05:37:02;17.50;99.90
23827;DHT22;12094;50.822;4.376;2022-08-19T05:39:33;17.50;99.90
23827;DHT22;12094;50.822;4.376;2022-08-19T05:42:07;17.50;99.90
23827;DHT22;12094;50.822;4.376;2022-08-19T05:44:40;17.60;99.90
23827;DHT22;12094;50.822;4.376;2022-08-19T05:47:13;17.60;99.90
23827;DHT22;12094;50.822;4.376;2022-08-19T05:50:06;17.70;99.90
23827;DHT22;12094;50.822;4.376;2022-08-19T05:52:37;17.70;99.90
23827;DHT22;12094;50.822;4.376;2022-08-19T05:55:09;17.70;99.90
23827;DHT22;12094;50.822;4.376;2022-08-19T05:57:39;17.80;99.90
23827;DHT22;12094;50.822;4.376;2022-08-19T06:00:07;17.80;99.90
23827;DHT22;12094;50.822;4.376;2022-08-19T06:02:38;17.80;99.90
23827;DHT22;12094;50.822;4.376;2022-08-19T06:05:06;17.90;99.90
23827;DHT22;12094;50.822;4.376;2022-08-19T06:07:34;18.10;99.90
23827;DHT22;12094;50.822;4.376;2022-08-19T06:10:11;18.20;99.90
23827;DHT22;12094;50.822;4.376;2022-08-19T06:12:40;18.20;99.90
23827;DHT22;12094;50.822;4.376;2022-08-19T06:15:10;18.30;99.90
23827;DHT22;12094;50.822;4.376;2022-08-19T06:17:37;18.20;99.90
23827;DHT22;12094;50.822;4.376;2022-08-19T06:20:11;18.20;99.90
23827;DHT22;12094;50.822;4.376;2022-08-19T06:22:43;18.30;99.90
23827;DHT22;12094;50.822;4.376;2022-08-19T06:25:14;18.40;99.90
23827;DHT22;12094;50.822;4.376;2022-08-19T06:27:41;18.30;99.90
23827;DHT22;12094;50.822;4.376;2022-08-19T06:30:29;18.40;99.90
23827;DHT22;12094;50.822;4.376;2022-08-19T06:32:58;18.40;99.90
23827;DHT22;12094;50.822;4.376;2022-08-19T06:35:25;18.50;99.90
23827;DHT22;12094;50.822;4.376;2022-08-19T06:37:52;18.60;99.90
23827;DHT22;12094;50.822;4.376;2022-08-19T06:40:20;18.70;99.90
23827;DHT22;12094;50.822;4.376;2022-08-19T06:42:49;18.70;99.90
23827;DHT22;12094;50.822;4.376;2022-08-19T06:45:22;18.80;99.90
23827;DHT22;12094;50.822;4.376;2022-08-19T06:48:00;18.80;99.90
23827;DHT22;12094;50.822;4.376;2022-08-19T06:50:27;18.90;99.90
23827;DHT22;12094;50.822;4.376;2022-08-19T06:52:54;19.20;99.90
23827;DHT22;12094;50.822;4.376;2022-08-19T06:55:21;19.40;99.90
23827;DHT22;12094;50.822;4.376;2022-08-19T06:57:49;19.50;99.90
23827;DHT22;12094;50.822;4.376;2022-08-19T07:00:20;19.40;99.90
23827;DHT22;12094;50.822;4.376;2022-08-19T07:02:47;19.30;99.90
23827;DHT22;12094;50.822;4.376;2022-08-19T07:05:25;19.30;99.90
23827;DHT22;12094;50.822;4.376;2022-08-19T07:07:54;19.40;99.90
23827;DHT22;12094;50.822;4.376;2022-08-19T07:10:27;19.50;99.90
23827;DHT22;12094;50.822;4.376;2022-08-19T07:12:55;19.40;99.90
23827;DHT22;12094;50.822;4.376;2022-08-19T07:15:22;19.40;99.90
23827;DHT22;12094;50.822;4.376;2022-08-19T07:17:50;19.40;99.90
23827;DHT22;12094;50.822;4.376;2022-08-19T07:20:18;19.40;99.90
23827;DHT22;12094;50.822;4.376;2022-08-19T07:22:45;19.60;99.90
23827;DHT22;12094;50.822;4.376;2022-08-19T07:25:12;19.70;99.90
23827;DHT22;12094;50.822;4.376;2022-08-19T07:27:39;19.80;99.90
23827;DHT22;12094;50.822;4.376;2022-08-19T07:30:08;20.00;99.90
23827;DHT22;12094;50.822;4.376;2022-08-19T07:32:38;20.20;99.90
23827;DHT22;12094;50.822;4.376;2022-08-19T07:35:06;20.40;99.90
23827;DHT22;12094;50.822;4.376;2022-08-19T07:37:33;20.30;99.90
23827;DHT22;12094;50.822;4.376;2022-08-19T07:40:06;20.10;99.90
23827;DHT22;12094;50.822;4.376;2022-08-19T07:42:36;20.10;99.90
23827;DHT22;12094;50.822;4.376;2022-08-19T07:45:07;20.30;99.90
23827;DHT22;12094;50.822;4.376;2022-08-19T07:47:34;20.50;99.90
23827;DHT22;12094;50.822;4.376;2022-08-19T07:50:17;20.60;99.90
23827;DHT22;12094;50.822;4.376;2022-08-19T07:52:49;20.70;99.90
23827;DHT22;12094;50.822;4.376;2022-08-19T07:55:20;20.70;99.90
23827;DHT22;12094;50.822;4.376;2022-08-19T07:58:11;20.80;99.90
23827;DHT22;12094;50.822;4.376;2022-08-19T08:00:41;20.70;99.90
23827;DHT22;12094;50.822;4.376;2022-08-19T08:03:08;20.70;99.90
23827;DHT22;12094;50.822;4.376;2022-08-19T08:05:35;20.90;99.90
23827;DHT22;12094;50.822;4.376;2022-08-19T08:08:22;21.20;99.90
23827;DHT22;12094;50.822;4.376;2022-08-19T08:11:19;21.20;99.90
23827;DHT22;12094;50.822;4.376;2022-08-19T08:13:47;21.20;99.90
23827;DHT22;12094;50.822;4.376;2022-08-19T08:16:39;21.00;99.90
23827;DHT22;12094;50.822;4.376;2022-08-19T08:19:14;21.00;99.90
23827;DHT22;12094;50.822;4.376;2022-08-19T08:21:53;21.00;99.90
23827;DHT22;12094;50.822;4.376;2022-08-19T08:24:22;21.00;99.90
23827;DHT22;12094;50.822;4.376;2022-08-19T08:26:55;20.70;99.90
23827;DHT22;12094;50.822;4.376;2022-08-19T08:29:24;20.90;99.90
23827;DHT22;12094;50.822;4.376;2022-08-19T08:31:51;20.90;99.90
23827;DHT22;12094;50.822;4.376;2022-08-19T08:34:25;20.90;99.90
23827;DHT22;12094;50.822;4.376;2022-08-19T08:36:54;20.90;99.90
23827;DHT22;12094;50.822;4.376;2022-08-19T08:39:21;21.10;99.90
23827;DHT22;12094;50.822;4.376;2022-08-19T08:42:12;20.90;99.90
23827;DHT22;12094;50.822;4.376;2022-08-19T08:45:03;20.80;99.90
23827;DHT22;12094;50.822;4.376;2022-08-19T08:47:37;20.80;99.90
23827;DHT22;12094;50.822;4.376;2022-08-19T08:50:31;20.70;99.90
23827;DHT22;12094;50.822;4.376;2022-08-19T08:53:03;20.70;99.90
23827;DHT22;12094;50.822;4.376;2022-08-19T08:55:32;20.60;99.90
23827;DHT22;12094;50.822;4.376;2022-08-19T08:58:10;20.70;99.90
23827;DHT22;12094;50.822;4.376;2022-08-19T09:00:45;20.80;99.90
23827;DHT22;12094;50.822;4.376;2022-08-19T09:03:19;21.20;99.90
23827;DHT22;12094;50.822;4.376;2022-08-19T09:05:59;21.60;99.90
23827;DHT22;12094;50.822;4.376;2022-08-19T09:08:48;21.60;99.90
23827;DHT22;12094;50.822;4.376;2022-08-19T09:17:19;21.40;99.90
23827;DHT22;12094;50.822;4.376;2022-08-19T09:19:53;21.40;99.90
23827;DHT22;12094;50.822;4.376;2022-08-19T09:22:23;21.30;99.90
23827;DHT22;12094;50.822;4.376;2022-08-19T09:24:56;21.30;99.90
23827;DHT22;12094;50.822;4.376;2022-08-19T09:27:24;21.20;99.90
23827;DHT22;12094;50.822;4.376;2022-08-19T09:30:14;21.10;99.90
23827;DHT22;12094;50.822;4.376;2022-08-19T09:32:42;21.00;99.90
23827;DHT22;12094;50.822;4.376;2022-08-19T09:35:12;21.30;99.90
23827;DHT22;12094;50.822;4.376;2022-08-19T09:37:41;21.30;99.90
23827;DHT22;12094;50.822;4.376;2022-08-19T09:40:13;21.20;99.90
23827;DHT22;12094;50.822;4.376;2022-08-19T09:42:44;21.10;99.90
23827;DHT22;12094;50.822;4.376;2022-08-19T09:45:20;21.10;99.90
23827;DHT22;12094;50.822;4.376;2022-08-19T09:47:50;21.30;99.90
23827;DHT22;12094;50.822;4.376;2022-08-19T09:50:22;21.30;99.90
23827;DHT22;12094;50.822;4.376;2022-08-19T09:52:52;21.30;99.90
23827;DHT22;12094;50.822;4.376;2022-08-19T09:55:25;21.30;99.90
23827;DHT22;12094;50.822;4.376;2022-08-19T09:58:00;21.30;99.90
23827;DHT22;12094;50.822;4.376;2022-08-19T10:00:34;21.30;99.90
23827;DHT22;12094;50.822;4.376;2022-08-19T10:03:04;21.30;99.90
23827;DHT22;12094;50.822;4.376;2022-08-19T10:05:32;21.30;99.90
23827;DHT22;12094;50.822;4.376;2022-08-19T10:08:25;21.30;99.90
23827;DHT22;12094;50.822;4.376;2022-08-19T10:10:53;21.60;99.90
23827;DHT22;12094;50.822;4.376;2022-08-19T10:13:24;21.60;99.90
23827;DHT22;12094;50.822;4.376;2022-08-19T10:15:56;21.60;99.90
23827;DHT22;12094;50.822;4.376;2022-08-19T10:18:24;21.50;99.90
23827;DHT22;12094;50.822;4.376;2022-08-19T10:21:01;21.60;99.90
23827;DHT22;12094;50.822;4.376;2022-08-19T10:23:28;21.70;99.90
23827;DHT22;12094;50.822;4.376;2022-08-19T10:26:00;21.80;99.90
23827;DHT22;12094;50.822;4.376;2022-08-19T10:28:27;21.50;99.90
23827;DHT22;12094;50.822;4.376;2022-08-19T10:30:55;21.50;99.90
23827;DHT22;12094;50.822;4.376;2022-08-19T10:33:23;21.40;99.90
23827;DHT22;12094;50.822;4.376;2022-08-19T10:36:17;21.30;99.90
23827;DHT22;12094;50.822;4.376;2022-08-19T10:38:46;21.40;99.90
23827;DHT22;12094;50.822;4.376;2022-08-19T10:41:23;21.70;99.90
23827;DHT22;12094;50.822;4.376;2022-08-19T10:43:59;21.90;99.90
23827;DHT22;12094;50.822;4.376;2022-08-19T10:46:33;21.80;99.90
23827;DHT22;12094;50.822;4.376;2022-08-19T10:49:05;21.70;99.90
23827;DHT22;12094;50.822;4.376;2022-08-19T10:51:32;21.50;99.90
23827;DHT22;12094;50.822;4.376;2022-08-19T10:54:20;21.50;99.90
23827;DHT22;12094;50.822;4.376;2022-08-19T10:57:05;21.60;99.90
23827;DHT22;12094;50.822;4.376;2022-08-19T10:59:32;21.80;99.90
23827;DHT22;12094;50.822;4.376;2022-08-19T11:02:05;22.00;99.90
23827;DHT22;12094;50.822;4.376;2022-08-19T11:04:38;21.90;99.90
23827;DHT22;12094;50.822;4.376;2022-08-19T11:07:08;22.00;99.90
23827;DHT22;12094;50.822;4.376;2022-08-19T11:09:43;21.90;99.90
23827;DHT22;12094;50.822;4.376;2022-08-19T11:12:17;22.00;99.90
23827;DHT22;12094;50.822;4.376;2022-08-19T11:14:46;22.00;99.90
23827;DHT22;12094;50.822;4.376;2022-08-19T11:17:15;22.30;99.90
23827;DHT22;12094;50.822;4.376;2022-08-19T11:19:42;22.50;99.90
23827;DHT22;12094;50.822;4.376;2022-08-19T11:22:13;22.80;99.90
23827;DHT22;12094;50.822;4.376;2022-08-19T11:24:46;22.40;99.90
23827;DHT22;12094;50.822;4.376;2022-08-19T11:27:43;22.10;99.90
23827;DHT22;12094;50.822;4.376;2022-08-19T11:30:14;22.00;99.90
23827;DHT22;12094;50.822;4.376;2022-08-19T11:32:43;21.90;99.90
23827;DHT22;12094;50.822;4.376;2022-08-19T11:35:16;21.80;99.90
23827;DHT22;12094;50.822;4.376;2022-08-19T11:37:46;21.80;99.90
23827;DHT22;12094;50.822;4.376;2022-08-19T11:40:14;21.80;99.90
23827;DHT22;12094;50.822;4.376;2022-08-19T11:42:46;21.80;99.90
23827;DHT22;12094;50.822;4.376;2022-08-19T11:45:29;21.80;99.90
23827;DHT22;12094;50.822;4.376;2022-08-19T11:48:01;21.90;99.90
23827;DHT22;12094;50.822;4.376;2022-08-19T11:50:28;22.00;99.90
23827;DHT22;12094;50.822;4.376;2022-08-19T11:52:57;22.00;99.90
23827;DHT22;12094;50.822;4.376;2022-08-19T11:55:26;22.10;99.90
23827;DHT22;12094;50.822;4.376;2022-08-19T11:57:54;22.10;99.90
23827;DHT22;12094;50.822;4.376;2022-08-19T12:00:23;22.40;99.90
23827;DHT22;12094;50.822;4.376;2022-08-19T12:02:51;22.60;99.90
23827;DHT22;12094;50.822;4.376;2022-08-19T12:05:19;23.10;99.90
23827;DHT22;12094;50.822;4.376;2022-08-19T12:07:47;23.40;99.90
23827;DHT22;12094;50.822;4.376;2022-08-19T12:10:15;23.80;99.90
23827;DHT22;12094;50.822;4.376;2022-08-19T12:12:49;24.40;99.90
23827;DHT22;12094;50.822;4.376;2022-08-19T12:15:26;24.20;99.90
23827;DHT22;12094;50.822;4.376;2022-08-19T12:18:04;24.10;99.90
23827;DHT22;12094;50.822;4.376;2022-08-19T12:20:41;24.00;99.90
23827;DHT22;12094;50.822;4.376;2022-08-19T12:23:10;24.00;99.90
23827;DHT22;12094;50.822;4.376;2022-08-19T12:25:42;24.30;99.90
23827;DHT22;12094;50.822;4.376;2022-08-19T12:28:22;24.70;99.90
23827;DHT22;12094;50.822;4.376;2022-08-19T12:30:51;25.10;99.90
23827;DHT22;12094;50.822;4.376;2022-08-19T12:33:19;24.90;99.90
23827;DHT22;12094;50.822;4.376;2022-08-19T12:35:54;24.70;99.90
23827;DHT22;12094;50.822;4.376;2022-08-19T12:38:26;24.70;99.90
23827;DHT22;12094;50.822;4.376;2022-08-19T12:40:57;24.70;99.90
23827;DHT22;12094;50.822;4.376;2022-08-19T12:43:28;24.60;99.90
23827;DHT22;12094;50.822;4.376;2022-08-19T12:45:58;24.70;99.90
23827;DHT22;12094;50.822;4.376;2022-08-19T12:48:27;24.90;99.90
23827;DHT22;12094;50.822;4.376;2022-08-19T12:51:06;25.10;99.90
23827;DHT22;12094;50.822;4.376;2022-08-19T12:53:33;24.70;99.90
23827;DHT22;12094;50.822;4.376;2022-08-19T12:56:05;24.40;99.90
23827;DHT22;12094;50.822;4.376;2022-08-19T12:58:40;24.30;99.90
23827;DHT22;12094;50.822;4.376;2022-08-19T13:01:18;24.10;99.90
23827;DHT22;12094;50.822;4.376;2022-08-19T13:03:50;24.10;99.90
23827;DHT22;12094;50.822;4.376;2022-08-19T13:06:23;24.40;99.90
23827;DHT22;12094;50.822;4.376;2022-08-19T13:08:51;25.00;99.90
23827;DHT22;12094;50.822;4.376;2022-08-19T13:11:24;25.00;99.90
23827;DHT22;12094;50.822;4.376;2022-08-19T13:13:52;25.20;99.90
23827;DHT22;12094;50.822;4.376;2022-08-19T13:16:23;25.60;99.90
23827;DHT22;12094;50.822;4.376;2022-08-19T13:18:50;25.40;99.90
23827;DHT22;12094;50.822;4.376;2022-08-19T13:21:22;25.00;99.90
23827;DHT22;12094;50.822;4.376;2022-08-19T13:23:52;24.80;99.90
23827;DHT22;12094;50.822;4.376;2022-08-19T13:26:21;24.60;99.90
23827;DHT22;12094;50.822;4.376;2022-08-19T13:28:50;24.40;99.90
23827;DHT22;12094;50.822;4.376;2022-08-19T13:31:40;24.30;99.90
23827;DHT22;12094;50.822;4.376;2022-08-19T13:34:32;24.30;99.90
23827;DHT22;12094;50.822;4.376;2022-08-19T13:37:03;24.60;99.90
23827;DHT22;12094;50.822;4.376;2022-08-19T13:39:33;25.10;99.90
23827;DHT22;12094;50.822;4.376;2022-08-19T13:42:04;25.70;99.90
23827;DHT22;12094;50.822;4.376;2022-08-19T13:44:34;26.10;99.90
23827;DHT22;12094;50.822;4.376;2022-08-19T13:47:04;25.80;99.90
23827;DHT22;12094;50.822;4.376;2022-08-19T13:49:35;25.30;99.90
23827;DHT22;12094;50.822;4.376;2022-08-19T13:52:04;25.00;99.90
23827;DHT22;12094;50.822;4.376;2022-08-19T13:54:38;25.10;99.90
23827;DHT22;12094;50.822;4.376;2022-08-19T13:57:05;24.80;99.90
23827;DHT22;12094;50.822;4.376;2022-08-19T13:59:34;24.80;99.90
23827;DHT22;12094;50.822;4.376;2022-08-19T14:02:03;25.10;99.90
23827;DHT22;12094;50.822;4.376;2022-08-19T14:04:34;25.10;99.90
23827;DHT22;12094;50.822;4.376;2022-08-19T14:07:04;24.70;99.90
23827;DHT22;12094;50.822;4.376;2022-08-19T14:09:31;24.50;99.90
23827;DHT22;12094;50.822;4.376;2022-08-19T14:12:00;24.40;99.90
23827;DHT22;12094;50.822;4.376;2022-08-19T14:14:27;24.70;99.90
23827;DHT22;12094;50.822;4.376;2022-08-19T14:16:56;24.90;99.90
23827;DHT22;12094;50.822;4.376;2022-08-19T14:19:23;24.90;99.90
23827;DHT22;12094;50.822;4.376;2022-08-19T14:21:56;24.80;99.90
23827;DHT22;12094;50.822;4.376;2022-08-19T14:24:24;24.90;99.90
23827;DHT22;12094;50.822;4.376;2022-08-19T14:26:51;25.20;99.90
23827;DHT22;12094;50.822;4.376;2022-08-19T14:29:20;25.20;99.90
23827;DHT22;12094;50.822;4.376;2022-08-19T14:31:47;24.80;99.90
23827;DHT22;12094;50.822;4.376;2022-08-19T14:34:16;24.90;99.90
23827;DHT22;12094;50.822;4.376;2022-08-19T14:36:44;24.80;99.90
23827;DHT22;12094;50.822;4.376;2022-08-19T14:39:14;24.40;99.90
23827;DHT22;12094;50.822;4.376;2022-08-19T14:41:43;24.40;99.90
23827;DHT22;12094;50.822;4.376;2022-08-19T14:44:14;23.70;99.90
23827;DHT22;12094;50.822;4.376;2022-08-19T14:46:42;23.10;99.90
23827;DHT22;12094;50.822;4.376;2022-08-19T14:49:16;22.80;99.90
23827;DHT22;12094;50.822;4.376;2022-08-19T14:51:45;22.60;99.90
23827;DHT22;12094;50.822;4.376;2022-08-19T14:54:13;22.60;99.90
23827;DHT22;12094;50.822;4.376;2022-08-19T14:56:41;22.80;99.90
23827;DHT22;12094;50.822;4.376;2022-08-19T14:59:10;23.00;99.90
23827;DHT22;12094;50.822;4.376;2022-08-19T15:01:38;23.10;99.90
23827;DHT22;12094;50.822;4.376;2022-08-19T15:04:05;23.20;99.90
23827;DHT22;12094;50.822;4.376;2022-08-19T15:06:32;23.60;99.90
23827;DHT22;12094;50.822;4.376;2022-08-19T15:09:02;23.80;99.90
23827;DHT22;12094;50.822;4.376;2022-08-19T15:11:31;24.20;99.90
23827;DHT22;12094;50.822;4.376;2022-08-19T15:14:00;24.20;99.90
23827;DHT22;12094;50.822;4.376;2022-08-19T15:16:29;23.90;99.90
23827;DHT22;12094;50.822;4.376;2022-08-19T15:18:57;23.80;99.90
23827;DHT22;12094;50.822;4.376;2022-08-19T15:21:27;23.70;99.90
23827;DHT22;12094;50.822;4.376;2022-08-19T15:23:56;23.70;99.90
23827;DHT22;12094;50.822;4.376;2022-08-19T15:26:25;23.70;99.90
23827;DHT22;12094;50.822;4.376;2022-08-19T15:28:54;23.80;99.90
23827;DHT22;12094;50.822;4.376;2022-08-19T15:31:21;24.00;99.90
23827;DHT22;12094;50.822;4.376;2022-08-19T15:33:55;24.00;99.90
23827;DHT22;12094;50.822;4.376;2022-08-19T15:36:27;23.90;99.90
23827;DHT22;12094;50.822;4.376;2022-08-19T15:38:55;23.90;99.90
23827;DHT22;12094;50.822;4.376;2022-08-19T15:41:26;23.60;99.90
23827;DHT22;12094;50.822;4.376;2022-08-19T15:44:01;23.60;99.90
23827;DHT22;12094;50.822;4.376;2022-08-19T15:46:38;23.60;99.90
23827;DHT22;12094;50.822;4.376;2022-08-19T15:49:09;23.50;99.90
23827;DHT22;12094;50.822;4.376;2022-08-19T15:51:39;23.80;99.90
23827;DHT22;12094;50.822;4.376;2022-08-19T15:54:11;23.80;99.90
23827;DHT22;12094;50.822;4.376;2022-08-19T15:56:39;23.70;99.90
23827;DHT22;12094;50.822;4.376;2022-08-19T15:59:27;23.90;99.90
23827;DHT22;12094;50.822;4.376;2022-08-19T16:02:14;24.00;99.90
23827;DHT22;12094;50.822;4.376;2022-08-19T16:05:07;23.90;99.90
23827;DHT22;12094;50.822;4.376;2022-08-19T16:07:57;24.00;99.90
23827;DHT22;12094;50.822;4.376;2022-08-19T16:10:25;23.80;99.90